Time;durP1;ratioP1;P1;durP2;ratioP2;P2;SDS_P1;SDS_P2;PMS_P1;PMS_P2;Temp;Humidity;BMP_temperature;BMP_pressure;BME280_temperature;BME280_humidity;BME280_pressure;Samples;Min_cycle;Max_cycle;Signal;HPM_P1;HPM_P2
2022/11/02 00:00:12;;;;;;;9.15;1.95;;;;;;;13.12;79.75;101227.44;1015471;29;20308;-88
2022/11/02 00:00:46;;;;;;;6.57;1.30;;;;;;;13.09;79.67;101219.88;1023212;29;20295;-89
2022/11/02 00:01:20;;;;;;;11.68;2.20;;;;;;;13.12;80.03;101227.44;1019365;29;20906;-88
2022/11/02 00:01:52;;;;;;;8.13;1.25;;;;;;;13.14;80.36;101213.84;1018782;29;20821;-88
2022/11/02 00:02:24;;;;;;;9.00;2.80;;;;;;;13.12;80.39;101230.13;1019021;29;20363;-90
2022/11/02 00:02:56;;;;;;;13.30;1.77;;;;;;;13.11;80.23;101225.81;1024213;28;20286;-88
2022/11/02 00:03:27;;;;;;;9.23;1.65;;;;;;;13.10;79.67;101224.19;1018939;29;20713;-89
2022/11/02 00:03:59;;;;;;;10.15;2.15;;;;;;;13.09;79.51;101227.88;1019460;29;20315;-88
2022/11/02 00:04:30;;;;;;;7.32;2.20;;;;;;;13.09;79.95;101221.72;1012275;29;20693;-89
2022/11/02 00:05:02;;;;;;;7.95;1.92;;;;;;;13.09;80.14;101230.56;1014310;29;20306;-89
2022/11/02 00:05:34;;;;;;;13.23;1.90;;;;;;;13.10;80.43;101224.19;1018367;29;20307;-88
2022/11/02 00:06:05;;;;;;;9.27;2.75;;;;;;;13.10;80.36;101224.19;1023853;28;20302;-87
2022/11/02 00:06:37;;;;;;;12.02;1.90;;;;;;;13.10;79.95;101223.34;1027195;28;20293;-88
2022/11/02 00:07:08;;;;;;;8.18;2.20;;;;;;;13.08;80.30;101226.25;1023389;29;20290;-88
2022/11/02 00:07:41;;;;;;;5.30;1.40;;;;;;;13.09;79.74;101219.88;1022961;29;20300;-88
2022/11/02 00:08:13;;;;;;;8.13;1.25;;;;;;;13.10;79.83;101224.19;1019989;29;20314;-88
2022/11/02 00:08:44;;;;;;;7.65;1.60;;;;;;;13.13;80.46;101228.25;1023728;28;20318;-88
2022/11/02 00:09:16;;;;;;;10.13;2.03;;;;;;;13.10;80.44;101221.50;1018900;29;20642;-88
2022/11/02 00:09:48;;;;;;;6.15;1.50;;;;;;;13.08;80.60;101226.25;1020068;29;20303;-88
2022/11/02 00:10:20;;;;;;;7.28;1.67;;;;;;;13.07;80.37;101219.28;1026787;28;20784;-87
2022/11/02 00:10:52;;;;;;;8.82;1.77;;;;;;;13.07;80.72;101229.16;1023529;28;20321;-87
2022/11/02 00:11:23;;;;;;;8.27;1.65;;;;;;;13.06;80.42;101217.66;1027446;28;20298;-87
2022/11/02 00:11:55;;;;;;;8.93;1.92;;;;;;;13.08;80.14;101220.09;1022237;29;20298;-87
2022/11/02 00:12:27;;;;;;;7.88;1.73;;;;;;;13.07;80.39;101213.94;1016192;29;20304;-88
2022/11/02 00:12:58;;;;;;;4.63;1.40;;;;;;;13.06;80.41;101216.81;1019321;29;20306;-87
2022/11/02 00:13:30;;;;;;;7.57;1.00;;;;;;;13.07;80.59;101229.97;1023781;28;20322;-88
2022/11/02 00:14:03;;;;;;;3.13;1.00;;;;;;;13.08;80.47;101225.44;1027761;28;20302;-87
2022/11/02 00:14:34;;;;;;;10.98;2.17;;;;;;;13.11;80.77;101227.66;1031743;28;20320;-88
2022/11/02 00:15:07;;;;;;;9.75;1.90;;;;;;;13.09;81.07;101229.75;1030664;28;20297;-88
2022/11/02 00:15:38;;;;;;;8.00;1.05;;;;;;;13.05;80.24;101221.34;1022817;28;20094;-87
2022/11/02 00:16:13;;;;;;;9.65;1.70;;;;;;;13.07;80.35;101226.47;1027450;28;20392;-87
2022/11/02 00:16:45;;;;;;;8.90;1.75;;;;;;;13.05;80.67;101221.34;1024736;28;20297;-87
2022/11/02 00:17:16;;;;;;;9.80;1.70;;;;;;;13.02;80.79;101221.81;1023064;28;20816;-88
2022/11/02 00:17:50;;;;;;;9.60;2.60;;;;;;;13.03;80.64;101223.44;1022308;29;20321;-87
2022/11/02 00:18:21;;;;;;;12.70;1.77;;;;;;;13.06;80.96;101220.31;1016046;29;20300;-88
2022/11/02 00:18:57;;;;;;;9.77;2.08;;;;;;;13.07;80.60;101223.81;1015887;29;20300;-87
2022/11/02 00:19:29;;;;;;;6.60;2.10;;;;;;;13.06;80.44;101212.28;1020767;29;20308;-87
2022/11/02 00:20:02;;;;;;;8.45;1.85;;;;;;;13.06;80.62;101212.28;1016236;29;20300;-88
2022/11/02 00:20:35;;;;;;;4.55;1.30;;;;;;;13.07;80.52;101216.59;1018336;29;20324;-89
2022/11/02 00:21:07;;;;;;;6.68;1.48;;;;;;;13.06;80.46;101212.28;1015306;29;20350;-90
2022/11/02 00:21:39;;;;;;;3.63;1.00;;;;;;;13.11;80.03;101209.75;1021863;28;20368;-87
2022/11/02 00:22:11;;;;;;;4.80;1.33;;;;;;;13.10;80.26;101218.81;1020978;28;20307;-88
2022/11/02 00:22:43;;;;;;;11.88;2.53;;;;;;;13.12;79.54;101206.03;1023116;28;20485;-87
2022/11/02 00:23:15;;;;;;;8.77;2.35;;;;;;;13.08;80.20;101215.56;1026795;28;20301;-87
2022/11/02 00:23:47;;;;;;;10.25;2.78;;;;;;;13.09;80.50;101216.38;1026630;28;20843;-88
2022/11/02 00:24:19;;;;;;;13.80;2.85;;;;;;;13.06;80.43;101223.00;1023687;28;20316;-86
2022/11/02 00:24:52;;;;;;;1.88;0.90;;;;;;;13.10;80.18;101212.66;1019501;29;20314;-91
2022/11/02 00:25:25;;;;;;;6.07;1.27;;;;;;;13.12;79.80;101213.25;1019188;29;20374;-91
2022/11/02 00:25:57;;;;;;;11.93;1.48;;;;;;;13.11;79.73;101209.75;1027501;28;20314;-90
2022/11/02 00:26:35;;;;;;;10.57;3.03;;;;;;;13.11;80.86;101204.41;1023140;29;20784;-88
2022/11/02 00:27:06;;;;;;;9.77;1.58;;;;;;;13.16;80.33;101201.91;1018601;29;20427;-90
2022/11/02 00:27:39;;;;;;;3.30;1.30;;;;;;;13.18;80.10;101221.25;1020695;29;20814;-89
2022/11/02 00:28:11;;;;;;;7.65;1.30;;;;;;;13.17;79.93;101208.91;1024117;28;20299;-87
2022/11/02 00:28:44;;;;;;;7.45;1.13;;;;;;;13.15;80.26;101208.28;1026894;28;20035;-88
2022/11/02 00:29:15;;;;;;;5.63;1.25;;;;;;;13.16;80.09;101206.44;1030359;28;20297;-86
2022/11/02 00:29:47;;;;;;;7.60;1.08;;;;;;;13.16;79.82;101207.25;1027820;28;20290;-88
2022/11/02 00:30:19;;;;;;;10.30;2.05;;;;;;;13.17;79.55;101208.91;1030780;28;20309;-88
2022/11/02 00:30:51;;;;;;;11.85;2.45;;;;;;;13.15;80.73;101208.28;1030391;28;20321;-88
2022/11/02 00:31:22;;;;;;;8.30;1.30;;;;;;;13.16;80.63;101207.25;1023990;28;20307;-86
2022/11/02 00:31:54;;;;;;;12.68;2.38;;;;;;;13.17;79.99;101208.91;1023253;29;20306;-94
2022/11/02 00:32:26;;;;;;;11.05;2.00;;;;;;;13.17;79.64;101208.91;1019365;29;20316;-87
2022/11/02 00:32:57;;;;;;;7.15;1.58;;;;;;;13.19;80.02;101206.03;1015913;29;20315;-88
2022/11/02 00:33:29;;;;;;;8.43;1.30;;;;;;;13.18;79.81;101210.56;1015751;29;20304;-89
2022/11/02 00:34:01;;;;;;;5.53;1.15;;;;;;;13.19;80.33;101217.53;1023858;28;20369;-88
2022/11/02 00:34:32;;;;;;;6.63;1.60;;;;;;;13.27;80.00;101209.19;1027601;28;20306;-89
2022/11/02 00:35:05;;;;;;;8.90;1.73;;;;;;;13.20;80.60;101208.47;1019022;29;20296;-87
2022/11/02 00:35:38;;;;;;;6.20;1.15;;;;;;;13.15;80.31;101216.31;1014986;29;20312;-86
2022/11/02 00:36:09;;;;;;;4.70;2.03;;;;;;;13.21;80.74;101215.44;1023392;29;20306;-88
2022/11/02 00:36:41;;;;;;;7.30;2.03;;;;;;;13.17;79.93;101211.59;1023418;29;20306;-88
2022/11/02 00:37:13;;;;;;;10.82;1.40;;;;;;;13.17;80.07;101219.63;1014897;29;20304;-88
2022/11/02 00:37:44;;;;;;;10.75;1.45;;;;;;;13.16;80.11;101212.59;1019293;29;20361;-88
2022/11/02 00:38:16;;;;;;;9.38;1.63;;;;;;;13.17;80.68;101211.59;1020101;29;20284;-89
2022/11/02 00:38:48;;;;;;;9.18;1.75;;;;;;;13.17;80.16;101208.91;1022365;28;20298;-88
2022/11/02 00:39:19;;;;;;;11.45;2.33;;;;;;;13.16;80.61;101223.31;1022580;29;20299;-88
2022/11/02 00:39:51;;;;;;;5.90;1.40;;;;;;;13.15;80.87;101220.84;1023713;28;20319;-90
2022/11/02 00:40:23;;;;;;;13.05;1.40;;;;;;;13.13;80.70;101214.88;1026302;28;20310;-90
2022/11/02 00:40:54;;;;;;;4.05;1.23;;;;;;;13.11;81.33;101220.47;1022362;28;20315;-94
2022/11/02 00:41:26;;;;;;;5.25;1.40;;;;;;;13.12;81.00;101227.44;1007340;29;20366;-89
2022/11/02 00:41:58;;;;;;;6.65;1.10;;;;;;;13.16;80.45;101225.16;1023142;29;20303;-89
2022/11/02 00:42:29;;;;;;;6.88;1.30;;;;;;;13.16;81.14;101223.31;1018772;28;20833;-89
2022/11/02 00:43:02;;;;;;;6.60;2.15;;;;;;;13.11;80.72;101212.44;1031389;28;20310;-88
2022/11/02 00:43:33;;;;;;;10.38;1.77;;;;;;;13.13;80.46;101218.38;1031709;28;20305;-89
2022/11/02 00:44:05;;;;;;;10.10;2.40;;;;;;;13.15;80.37;101216.31;1027517;28;20306;-89
2022/11/02 00:44:37;;;;;;;6.80;1.45;;;;;;;13.12;80.59;101211.41;1022685;29;20043;-88
2022/11/02 00:45:10;;;;;;;5.82;0.93;;;;;;;13.13;80.91;101202.31;1013017;29;20045;-89
2022/11/02 00:45:42;;;;;;;4.25;1.50;;;;;;;13.10;80.64;101213.47;1020587;29;21434;-89
2022/11/02 00:46:14;;;;;;;5.13;1.45;;;;;;;13.10;80.55;101215.34;1027173;28;20685;-91
2022/11/02 00:46:46;;;;;;;11.48;1.95;;;;;;;13.11;80.83;101219.66;1019240;29;20303;-88
2022/11/02 00:47:17;;;;;;;5.10;1.10;;;;;;;13.10;81.15;101212.66;1015370;29;20055;-88
2022/11/02 00:47:49;;;;;;;8.27;1.70;;;;;;;13.06;80.95;101217.66;1019059;29;20770;-88
2022/11/02 00:48:22;;;;;;;4.78;2.28;;;;;;;13.10;80.99;101218.81;1017451;28;20419;-88
2022/11/02 00:48:54;;;;;;;7.20;1.40;;;;;;;13.13;80.77;101223.72;1023382;29;20501;-89
2022/11/02 00:49:25;;;;;;;8.10;1.45;;;;;;;13.17;79.98;101230.31;1019015;29;20302;-91
2022/11/02 00:49:57;;;;;;;14.43;1.92;;;;;;;13.16;80.38;101219.81;1012569;29;20918;-89
2022/11/02 00:50:30;;;;;;;9.45;1.45;;;;;;;13.14;81.26;101225.34;1020406;29;20300;-91
2022/11/02 00:51:02;;;;;;;7.40;1.25;;;;;;;13.18;81.47;101215.91;1022672;29;20047;-91
2022/11/02 00:51:33;;;;;;;4.85;1.50;;;;;;;13.15;81.77;101226.22;1027951;28;20675;-87
2022/11/02 00:52:05;;;;;;;8.70;1.40;;;;;;;13.15;82.39;101231.56;1023944;29;20299;-89
2022/11/02 00:52:38;;;;;;;4.45;1.33;;;;;;;13.09;82.95;101237.78;1024029;29;20319;-91
2022/11/02 00:53:11;;;;;;;10.75;2.95;;;;;;;13.12;82.65;101238.13;1026960;28;20298;-91
2022/11/02 00:53:48;;;;;;;9.80;1.45;;;;;;;13.08;82.69;101242.31;1024299;28;20315;-87
2022/11/02 00:54:19;;;;;;;9.63;2.15;;;;;;;13.04;83.09;101235.78;1024194;29;20043;-90
2022/11/02 00:54:58;;;;;;;8.23;1.67;;;;;;;13.03;83.83;101239.47;1019680;29;20311;-93
2022/11/02 00:55:30;;;;;;;9.32;1.67;;;;;;;12.96;84.45;101236.06;1024522;29;20310;-90
2022/11/02 00:56:07;;;;;;;14.70;3.03;;;;;;;12.96;84.85;101241.41;1023694;28;20310;-89
2022/11/02 00:56:38;;;;;;;7.38;1.48;;;;;;;12.92;85.64;101238.38;1023832;29;20299;-91
2022/11/02 00:57:10;;;;;;;4.30;1.38;;;;;;;12.89;86.04;101232.66;1018752;29;20323;-87
2022/11/02 00:57:43;;;;;;;10.68;2.13;;;;;;;12.84;86.48;101229.81;1020470;29;20308;-87
2022/11/02 00:58:14;;;;;;;7.20;1.45;;;;;;;12.85;86.62;101229.59;1015415;29;20375;-87
2022/11/02 00:58:46;;;;;;;11.52;1.40;;;;;;;12.83;87.06;101250.38;1014873;29;20304;-87
2022/11/02 00:59:17;;;;;;;6.32;1.00;;;;;;;12.80;86.72;101224.09;1022052;29;20303;-88
2022/11/02 00:59:49;;;;;;;6.13;0.98;;;;;;;12.77;86.35;101235.22;1017144;29;20315;-91
2022/11/02 01:00:21;;;;;;;4.95;1.75;;;;;;;12.73;86.45;101238.56;1019592;29;20325;-86
2022/11/02 01:00:52;;;;;;;6.22;1.38;;;;;;;12.66;86.85;101234.13;1012197;29;20867;-85
2022/11/02 01:01:24;;;;;;;7.35;1.88;;;;;;;12.68;87.46;101241.91;1015718;29;20308;-90
2022/11/02 01:01:56;;;;;;;14.18;1.73;;;;;;;12.64;87.71;101238.88;1011821;29;20365;-90
2022/11/02 01:02:28;;;;;;;5.38;1.45;;;;;;;12.63;87.93;101241.75;1015692;29;20353;-86
2022/11/02 01:03:01;;;;;;;4.97;1.30;;;;;;;12.62;88.19;101243.59;1019979;29;20299;-86
2022/11/02 01:03:32;;;;;;;3.75;1.35;;;;;;;12.60;88.24;101240.34;1020475;29;20366;-87
2022/11/02 01:04:04;;;;;;;6.10;1.20;;;;;;;12.67;88.59;101245.63;1027566;28;20306;-90
2022/11/02 01:04:35;;;;;;;5.97;1.25;;;;;;;12.62;88.21;101238.25;1032133;28;20297;-89
2022/11/02 01:05:08;;;;;;;6.50;2.08;;;;;;;12.56;88.83;101244.47;1023604;29;20729;-87
2022/11/02 01:05:40;;;;;;;8.68;1.92;;;;;;;12.50;89.27;101229.31;1015385;29;20382;-87
2022/11/02 01:06:14;;;;;;;10.07;1.52;;;;;;;12.47;89.54;101235.09;1015898;29;20304;-86
2022/11/02 01:06:45;;;;;;;8.77;1.60;;;;;;;12.41;89.96;101233.31;1014875;29;20798;-89
2022/11/02 01:07:18;;;;;;;4.93;1.60;;;;;;;12.43;89.47;101236.56;1019668;29;20303;-86
2022/11/02 01:07:51;;;;;;;3.40;1.00;;;;;;;12.42;90.54;101232.28;1011618;29;20293;-87
2022/11/02 01:08:22;;;;;;;6.78;1.67;;;;;;;12.30;90.50;101234.00;1020675;29;20319;-86
2022/11/02 01:08:54;;;;;;;7.03;1.83;;;;;;;12.26;90.68;101236.28;1024143;28;20314;-86
2022/11/02 01:09:26;;;;;;;10.15;1.90;;;;;;;12.26;91.31;101232.81;1023514;29;20397;-87
2022/11/02 01:09:58;;;;;;;7.40;1.65;;;;;;;12.25;91.67;101236.50;1019913;29;20690;-86
2022/11/02 01:10:30;;;;;;;6.20;1.17;;;;;;;12.19;92.58;101216.03;1023684;28;20800;-85
2022/11/02 01:11:15;;;;;;;7.35;1.92;;;;;;;12.20;93.11;101229.16;1015591;29;20367;-87
2022/11/02 01:11:47;;;;;;;4.95;1.73;;;;;;;12.21;93.78;101251.34;1019836;29;20831;-86
2022/11/02 01:12:19;;;;;;;2.22;0.85;;;;;;;12.08;93.58;101225.56;1015345;29;20312;-87
2022/11/02 01:12:50;;;;;;;7.57;2.28;;;;;;;12.11;93.57;101235.00;1025050;28;20302;-86
2022/11/02 01:13:22;;;;;;;6.57;1.42;;;;;;;12.13;93.61;101232.91;1024034;28;20302;-89
2022/11/02 01:13:54;;;;;;;7.93;1.35;;;;;;;12.14;93.25;101239.91;1018946;29;20291;-87
2022/11/02 01:14:25;;;;;;;5.60;1.83;;;;;;;12.13;93.30;101238.25;1016277;29;20648;-90
2022/11/02 01:14:57;;;;;;;2.83;0.98;;;;;;;12.13;93.55;101235.59;1023607;29;20665;-87
2022/11/02 01:15:29;;;;;;;7.32;1.27;;;;;;;12.07;93.60;101235.41;1021299;28;20299;-86
2022/11/02 01:16:03;;;;;;;7.03;1.02;;;;;;;12.11;92.97;101237.66;1016533;29;20315;-87
2022/11/02 01:16:34;;;;;;;6.97;1.27;;;;;;;12.12;92.83;101234.78;1008243;29;20375;-86
2022/11/02 01:17:06;;;;;;;8.35;2.75;;;;;;;12.15;92.27;101230.84;1009622;29;20320;-85
2022/11/02 01:17:38;;;;;;;6.70;1.23;;;;;;;12.14;92.40;101237.22;1020043;29;20303;-87
2022/11/02 01:18:09;;;;;;;5.53;0.95;;;;;;;12.07;92.72;101234.59;1019815;29;20674;-87
2022/11/02 01:18:42;;;;;;;7.03;3.15;;;;;;;12.05;92.85;101232.16;1023563;28;20307;-89
2022/11/02 01:19:14;;;;;;;3.28;1.55;;;;;;;12.03;93.70;101228.84;1019598;29;20358;-86
2022/11/02 01:19:46;;;;;;;2.92;1.63;;;;;;;12.04;93.16;101219.81;1023653;29;20950;-88
2022/11/02 01:20:17;;;;;;;6.68;1.67;;;;;;;12.10;93.12;101225.34;1027688;28;20306;-86
2022/11/02 01:20:55;;;;;;;4.72;1.27;;;;;;;12.04;94.26;101224.31;1023554;29;20338;-87
2022/11/02 01:21:27;;;;;;;15.13;2.38;;;;;;;12.03;93.45;101222.69;1026876;28;20317;-87
2022/11/02 01:21:58;;;;;;;6.80;1.58;;;;;;;12.02;94.07;101231.75;1018447;29;20507;-89
2022/11/02 01:22:31;;;;;;;6.22;1.08;;;;;;;12.01;93.37;101225.59;1023878;29;20302;-89
2022/11/02 01:23:02;;;;;;;6.68;0.98;;;;;;;12.04;93.77;101230.50;1015509;29;20308;-88
2022/11/02 01:23:35;;;;;;;4.32;1.13;;;;;;;11.95;94.31;101226.44;1012417;29;20620;-87
2022/11/02 01:24:07;;;;;;;8.18;2.47;;;;;;;11.94;94.28;101224.81;1016456;29;20312;-88
2022/11/02 01:24:39;;;;;;;5.28;0.80;;;;;;;11.93;94.46;101233.88;1021166;28;20328;-87
2022/11/02 01:25:12;;;;;;;5.68;0.90;;;;;;;11.93;94.58;101220.50;1020369;29;20315;-89
2022/11/02 01:25:44;;;;;;;4.75;1.02;;;;;;;11.87;95.02;101224.06;1023531;28;20302;-88
2022/11/02 01:26:16;;;;;;;3.45;0.90;;;;;;;11.84;95.26;101219.16;1021868;29;20291;-89
2022/11/02 01:26:51;;;;;;;7.60;0.90;;;;;;;11.92;94.81;101221.53;1023416;28;20661;-87
2022/11/02 01:27:22;;;;;;;5.40;1.33;;;;;;;11.86;94.60;101217.06;1018752;29;20310;-89
2022/11/02 01:27:54;;;;;;;6.18;1.48;;;;;;;11.84;94.25;101215.66;1011777;29;20308;-87
2022/11/02 01:28:26;;;;;;;6.47;1.27;;;;;;;11.86;94.72;101221.59;1021893;29;20393;-88
2022/11/02 01:28:57;;;;;;;6.60;1.08;;;;;;;11.89;94.35;101224.66;1022957;28;20303;-87
2022/11/02 01:29:29;;;;;;;9.40;1.88;;;;;;;11.89;94.42;101216.66;1023354;28;20428;-88
2022/11/02 01:30:03;;;;;;;6.22;1.23;;;;;;;11.86;95.05;101222.41;1017751;29;20318;-87
2022/11/02 01:30:37;;;;;;;7.05;1.38;;;;;;;11.89;94.52;101216.66;1020473;29;20319;-90
2022/11/02 01:31:10;;;;;;;4.13;0.90;;;;;;;11.89;94.22;101211.31;1020449;29;20314;-89
2022/11/02 01:31:41;;;;;;;4.20;0.95;;;;;;;11.86;95.07;101214.41;1027625;28;20305;-87
2022/11/02 01:32:13;;;;;;;5.18;1.33;;;;;;;11.81;94.99;101208.91;1027293;28;20298;-88
2022/11/02 01:32:44;;;;;;;5.13;1.10;;;;;;;11.82;94.34;101199.84;1019405;29;20304;-88
2022/11/02 01:33:16;;;;;;;6.20;1.58;;;;;;;11.81;94.30;101208.09;1015652;29;20308;-87
2022/11/02 01:33:48;;;;;;;4.53;1.08;;;;;;;11.83;94.30;101214.03;1019600;29;20303;-88
2022/11/02 01:34:20;;;;;;;7.88;0.95;;;;;;;11.80;94.50;101207.25;1016887;29;20347;-86
2022/11/02 01:34:51;;;;;;;6.72;1.08;;;;;;;11.79;94.65;101210.97;1019390;29;20303;-89
2022/11/02 01:35:23;;;;;;;8.88;2.20;;;;;;;11.88;93.82;101209.66;1018142;29;20423;-85
2022/11/02 01:35:54;;;;;;;5.13;1.98;;;;;;;11.91;93.27;101214.56;1020880;29;20359;-88
2022/11/02 01:36:26;;;;;;;3.25;1.27;;;;;;;11.93;93.21;101217.84;1023002;29;20302;-87
2022/11/02 01:36:58;;;;;;;7.43;1.33;;;;;;;11.93;93.17;101220.50;1027865;28;20397;-86
2022/11/02 01:37:30;;;;;;;8.98;1.40;;;;;;;11.92;92.98;101221.53;1025662;28;20682;-88
2022/11/02 01:38:01;;;;;;;9.43;2.95;;;;;;;11.93;93.04;101223.19;1028138;28;20298;-88
2022/11/02 01:38:33;;;;;;;8.90;1.38;;;;;;;11.95;92.66;101221.13;1030321;28;20811;-87
2022/11/02 01:39:05;;;;;;;7.18;0.90;;;;;;;11.96;92.70;101222.75;1019653;29;20303;-87
2022/11/02 01:39:36;;;;;;;2.65;1.40;;;;;;;11.97;92.51;101232.38;1020216;29;20299;-88
2022/11/02 01:40:09;;;;;;;1.65;1.05;;;;;;;11.96;92.33;101222.75;1023341;29;20341;-88
2022/11/02 01:40:40;;;;;;;10.38;2.83;;;;;;;11.98;91.95;101215.34;1021478;28;20303;-87
2022/11/02 01:41:12;;;;;;;4.10;1.48;;;;;;;12.01;91.98;101214.09;1027500;28;20334;-87
2022/11/02 01:41:44;;;;;;;3.72;1.08;;;;;;;11.99;91.97;101216.97;1026044;28;20660;-88
2022/11/02 01:42:20;;;;;;;7.40;2.60;;;;;;;12.04;91.55;101225.16;1015875;29;20330;-87
2022/11/02 01:42:51;;;;;;;9.57;1.50;;;;;;;12.06;91.80;101217.78;1013265;29;20878;-89
2022/11/02 01:43:28;;;;;;;4.88;1.10;;;;;;;12.09;91.86;101221.03;1027802;28;20302;-88
2022/11/02 01:44:21;;;;;;;2.05;0.93;;;;;;;12.14;91.49;101215.84;1023636;29;20302;-88
2022/11/02 01:44:52;;;;;;;7.25;0.80;;;;;;;12.13;91.43;101227.56;1018100;29;20864;-87
2022/11/02 01:45:24;;;;;;;9.02;1.40;;;;;;;12.14;90.79;101226.53;1019530;29;20833;-88
2022/11/02 01:46:03;;;;;;;3.50;0.90;;;;;;;12.18;90.70;101219.72;1022974;29;20299;-89
2022/11/02 01:46:41;;;;;;;6.05;2.17;;;;;;;12.15;90.95;101217.50;1011927;29;20356;-89
2022/11/02 01:47:15;;;;;;;8.23;1.17;;;;;;;12.14;91.22;101229.22;1007363;29;20396;-85
2022/11/02 01:47:47;;;;;;;3.83;1.20;;;;;;;12.19;90.79;101230.19;1015620;29;20304;-88
2022/11/02 01:48:24;;;;;;;4.40;1.05;;;;;;;12.20;90.35;101212.31;1015085;29;21019;-88
2022/11/02 01:49:09;;;;;;;4.70;1.00;;;;;;;12.17;90.75;101220.75;1011758;29;20370;-87
2022/11/02 01:49:42;;;;;;;3.13;0.85;;;;;;;12.15;90.78;101225.50;1022842;29;20309;-88
2022/11/02 01:50:20;;;;;;;5.50;1.45;;;;;;;12.13;91.00;101219.56;1019234;29;20318;-87
2022/11/02 01:50:52;;;;;;;5.53;1.30;;;;;;;12.14;91.26;101222.03;1023067;29;20326;-88
2022/11/02 01:51:32;;;;;;;8.25;1.10;;;;;;;12.12;91.65;101224.09;1015668;29;20330;-88
2022/11/02 01:52:10;;;;;;;3.85;1.13;;;;;;;12.15;91.45;101226.31;1018148;29;20300;-89
2022/11/02 01:52:41;;;;;;;3.40;1.00;;;;;;;12.13;91.44;101224.91;1015397;29;20043;-88
2022/11/02 01:53:13;;;;;;;6.68;1.35;;;;;;;12.19;91.87;101226.69;1019821;29;20310;-88
2022/11/02 01:53:46;;;;;;;5.38;1.55;;;;;;;12.12;91.98;101223.28;1015463;29;20308;-88
2022/11/02 01:54:22;;;;;;;11.40;2.40;;;;;;;12.07;91.82;101224.75;1023837;28;20317;-88
2022/11/02 01:55:00;;;;;;;9.05;1.35;;;;;;;12.02;91.99;101229.88;1024770;28;21672;-87
2022/11/02 01:55:33;;;;;;;9.90;2.05;;;;;;;12.01;92.22;101224.75;1023469;28;20677;-88
2022/11/02 01:56:05;;;;;;;6.53;1.10;;;;;;;12.03;92.13;101226.19;1025846;28;20302;-88
2022/11/02 01:56:39;;;;;;;6.28;1.52;;;;;;;12.06;92.18;101224.97;1022799;29;20628;-88
2022/11/02 01:57:12;;;;;;;11.25;1.50;;;;;;;12.05;92.58;101232.16;1019314;29;20358;-89
2022/11/02 01:57:52;;;;;;;5.78;1.40;;;;;;;12.05;92.26;101224.13;1019524;28;20573;-87
2022/11/02 01:58:25;;;;;;;9.40;1.52;;;;;;;12.05;92.47;101232.16;1027398;28;20948;-87
2022/11/02 01:59:00;;;;;;;6.30;1.50;;;;;;;12.01;92.60;101230.09;1023561;29;20310;-87
2022/11/02 01:59:40;;;;;;;4.63;1.30;;;;;;;11.98;92.60;101228.69;1023739;29;20880;-87
2022/11/02 02:00:13;;;;;;;5.07;1.98;;;;;;;11.99;92.79;101227.66;1017556;29;20336;-88
2022/11/02 02:00:45;;;;;;;3.47;0.88;;;;;;;11.89;93.25;101221.97;1015742;29;20881;-87
2022/11/02 02:01:17;;;;;;;9.98;1.50;;;;;;;11.90;93.25;101223.63;1019404;29;20303;-88
2022/11/02 02:01:48;;;;;;;11.25;2.58;;;;;;;11.87;93.59;101223.22;1020116;29;20811;-87
2022/11/02 02:02:23;;;;;;;5.15;1.15;;;;;;;11.86;93.25;101227.75;1020164;29;20324;-87
2022/11/02 02:03:01;;;;;;;5.25;1.10;;;;;;;11.84;93.94;101224.47;1018936;29;20842;-87
2022/11/02 02:03:34;;;;;;;7.95;1.88;;;;;;;11.84;94.44;101221.81;1023582;28;20740;-87
2022/11/02 02:04:07;;;;;;;3.70;0.85;;;;;;;11.87;94.04;101216.03;1015678;29;20348;-88
2022/11/02 02:04:41;;;;;;;3.53;1.50;;;;;;;11.86;94.02;101222.41;1027128;28;20306;-88
2022/11/02 02:05:14;;;;;;;7.15;1.65;;;;;;;11.81;94.19;101214.25;1023482;29;20817;-88
2022/11/02 02:05:54;;;;;;;7.10;1.20;;;;;;;11.84;94.41;101219.16;1023825;28;20314;-88
2022/11/02 02:06:26;;;;;;;4.68;1.23;;;;;;;11.87;94.34;101220.56;1016989;29;20311;-88
2022/11/02 02:06:58;;;;;;;8.00;1.65;;;;;;;11.85;95.03;101214.63;1023744;29;20050;-88
2022/11/02 02:07:31;;;;;;;13.15;1.27;;;;;;;11.84;94.92;101221.81;1026899;28;20305;-87
2022/11/02 02:08:03;;;;;;;2.42;1.40;;;;;;;11.82;95.02;101221.22;1019489;29;20318;-87
2022/11/02 02:08:41;;;;;;;12.00;3.88;;;;;;;11.86;94.86;101211.75;1012409;29;20308;-88
2022/11/02 02:09:14;;;;;;;11.35;2.35;;;;;;;11.88;95.20;101216.88;1019315;29;20301;-87
2022/11/02 02:09:46;;;;;;;11.65;1.85;;;;;;;11.84;95.31;101218.31;1015582;29;20348;-88
2022/11/02 02:10:22;;;;;;;5.53;1.55;;;;;;;11.83;95.21;101222.84;1011232;29;20696;-88
2022/11/02 02:10:57;;;;;;;9.93;2.05;;;;;;;11.83;95.09;101217.50;1015520;29;20375;-87
2022/11/02 02:11:32;;;;;;;12.63;1.52;;;;;;;11.86;95.28;101227.75;1023192;29;20311;-87
2022/11/02 02:12:04;;;;;;;8.23;1.33;;;;;;;11.86;95.31;101233.09;1027480;28;20824;-88
2022/11/02 02:12:37;;;;;;;8.70;1.73;;;;;;;11.86;95.63;101238.44;1023476;29;20306;-88
2022/11/02 02:13:09;;;;;;;8.50;1.80;;;;;;;11.97;95.72;101248.41;1019029;29;20355;-88
2022/11/02 02:13:41;;;;;;;9.75;1.73;;;;;;;11.97;95.68;101269.75;1020719;29;22038;-85
2022/11/02 02:14:17;;;;;;;6.38;1.55;;;;;;;11.95;96.38;101295.03;1028087;28;20302;-85
2022/11/02 02:14:51;;;;;;;9.02;3.08;;;;;;;11.91;97.63;101320.53;1019542;29;20314;-84
2022/11/02 02:15:27;;;;;;;10.02;2.17;;;;;;;11.87;99.06;101304.13;1021815;28;20651;-86
2022/11/02 02:16:10;;;;;;;7.68;2.00;;;;;;;11.63;98.81;101291.47;1019497;29;20318;-83
2022/11/02 02:16:53;;;;;;;5.78;0.88;;;;;;;11.31;98.83;101298.56;1016126;29;20293;-85
2022/11/02 02:17:29;;;;;;;3.85;0.70;;;;;;;11.25;98.46;101302.09;1025554;28;20964;-85
2022/11/02 02:18:06;;;;;;;3.72;1.05;;;;;;;11.12;98.91;101294.91;1023819;29;20317;-85
2022/11/02 02:19:09;;;;;;;3.78;0.90;;;;;;;11.09;99.53;101282.00;1022873;29;20342;-85
2022/11/02 02:20:05;;;;;;;2.92;0.63;;;;;;;10.88;100.00;101300.91;1012419;29;20309;-88
2022/11/02 02:21:15;;;;;;;5.70;0.85;;;;;;;10.62;100.00;101299.88;1034449;28;20803;-87
2022/11/02 02:22:41;;;;;;;4.45;0.50;;;;;;;10.55;100.00;101292.94;1020852;28;20631;-87
2022/11/02 02:23:32;;;;;;;2.15;0.70;;;;;;;10.43;100.00;101284.75;1016844;29;20303;-86
2022/11/02 02:24:16;;;;;;;3.22;1.13;;;;;;;10.40;100.00;101311.75;1012003;29;20305;-87
2022/11/02 02:25:04;;;;;;;2.33;0.50;;;;;;;10.31;100.00;101287.19;1007822;29;20049;-87
2022/11/02 02:26:12;;;;;;;3.50;0.45;;;;;;;10.29;100.00;101286.56;1010392;29;20317;-86
2022/11/02 02:27:17;;;;;;;3.63;0.60;;;;;;;10.27;100.00;101293.13;1025230;28;20401;-86
2022/11/02 02:28:12;;;;;;;4.68;1.15;;;;;;;10.28;100.00;101284.09;1023465;28;20321;-86
2022/11/02 02:28:49;;;;;;;0.55;0.32;;;;;;;10.27;100.00;101290.44;1019560;29;20802;-87
2022/11/02 02:29:23;;;;;;;2.15;0.60;;;;;;;10.20;100.00;101291.25;1027687;28;20306;-85
2022/11/02 02:30:05;;;;;;;3.25;0.22;;;;;;;10.18;100.00;101287.97;1023866;29;20306;-87
2022/11/02 02:30:50;;;;;;;0.95;0.60;;;;;;;10.13;100.00;101286.91;1025913;28;20373;-87
2022/11/02 02:31:24;;;;;;;3.22;0.30;;;;;;;10.13;100.00;101290.38;1023793;28;20819;-85
2022/11/02 02:32:04;;;;;;;2.20;0.40;;;;;;;10.12;100.00;101285.25;1023425;29;20313;-86
2022/11/02 02:32:39;;;;;;;4.65;0.28;;;;;;;10.11;100.00;101291.59;1027492;28;20297;-87
2022/11/02 02:33:15;;;;;;;3.92;0.30;;;;;;;10.09;100.00;101283.81;1027370;28;20047;-87
2022/11/02 02:34:11;;;;;;;4.47;0.50;;;;;;;9.99;100.00;101293.22;1026199;28;20301;-86
2022/11/02 02:34:55;;;;;;;1.95;0.40;;;;;;;10.08;100.00;101286.69;1022190;29;20315;-87
2022/11/02 02:35:26;;;;;;;1.85;0.60;;;;;;;10.01;100.00;101292.00;1023552;29;20302;-86
2022/11/02 02:36:10;;;;;;;5.30;0.45;;;;;;;9.97;100.00;101288.13;1023618;29;20302;-87
2022/11/02 02:36:57;;;;;;;3.55;0.55;;;;;;;9.99;100.00;101293.22;1024328;28;20816;-88
2022/11/02 02:37:56;;;;;;;5.30;0.60;;;;;;;9.98;100.00;101283.59;1028608;28;20310;-87
2022/11/02 02:38:33;;;;;;;2.63;0.47;;;;;;;9.95;100.00;101282.19;1019941;29;20311;-87
2022/11/02 02:39:11;;;;;;;2.55;0.55;;;;;;;9.99;100.00;101286.06;1019675;29;20398;-86
2022/11/02 02:39:56;;;;;;;2.53;0.82;;;;;;;9.93;100.00;101289.53;1015851;29;20311;-87